Time;durP1;ratioP1;P1;durP2;ratioP2;P2;SDS_P1;SDS_P2;PMS_P1;PMS_P2;Temp;Humidity;BMP_temperature;BMP_pressure;BME280_temperature;BME280_humidity;BME280_pressure;Samples;Min_cycle;Max_cycle;Signal;HPM_P1;HPM_P2
2023/01/01 00:00:47;;;;;;;25.98;10.32;;;15.20;99.90;;;;;;5073570;28;20028;-76
2023/01/01 00:03:13;;;;;;;27.70;11.80;;;15.90;99.90;;;;;;5072387;28;20051;-76
2023/01/01 00:05:38;;;;;;;29.27;13.15;;;15.10;99.90;;;;;;5073471;28;20387;-76
2023/01/01 00:08:04;;;;;;;32.58;14.45;;;15.10;99.90;;;;;;5072287;28;20497;-76
2023/01/01 00:10:30;;;;;;;28.83;13.77;;;15.10;99.90;;;;;;5073600;28;20032;-76
2023/01/01 00:12:56;;;;;;;23.80;11.52;;;15.00;99.90;;;;;;5073867;28;20024;-76
2023/01/01 00:15:23;;;;;;;27.10;14.05;;;16.00;99.90;;;;;;5072190;28;20036;-76
2023/01/01 00:17:48;;;;;;;26.92;11.55;;;15.00;99.90;;;;;;5073276;28;20059;-75
2023/01/01 00:20:14;;;;;;;21.92;10.35;;;15.50;99.90;;;;;;5073409;28;20478;-75
2023/01/01 00:22:40;;;;;;;26.30;12.02;;;15.00;99.90;;;;;;5073329;28;20029;-75
2023/01/01 00:25:06;;;;;;;12.18;5.82;;;15.00;99.90;;;;;;5071838;28;20479;-75
2023/01/01 00:27:32;;;;;;;15.38;6.82;;;15.00;99.90;;;;;;5073227;28;20394;-75
2023/01/01 00:29:57;;;;;;;10.05;5.40;;;15.00;99.90;;;;;;5071828;28;20111;-76
2023/01/01 00:32:23;;;;;;;14.68;6.43;;;15.00;99.90;;;;;;5072330;28;20147;-76
2023/01/01 00:34:49;;;;;;;17.48;5.68;;;15.00;99.90;;;;;;5071972;28;20024;-76
2023/01/01 00:37:16;;;;;;;21.75;6.13;;;15.00;99.90;;;;;;5071924;28;20027;-76
2023/01/01 00:39:41;;;;;;;20.52;7.60;;;15.10;99.90;;;;;;5071566;28;20402;-75
2023/01/01 00:42:08;;;;;;;20.90;6.57;;;15.00;99.90;;;;;;5073102;28;20048;-76
2023/01/01 00:44:33;;;;;;;14.38;5.95;;;15.10;99.90;;;;;;5073026;28;20029;-75
2023/01/01 00:46:59;;;;;;;15.75;5.07;;;15.00;99.90;;;;;;5073127;28;20024;-75
2023/01/01 00:49:25;;;;;;;14.57;4.75;;;15.00;99.90;;;;;;5072849;28;20020;-75
2023/01/01 00:51:50;;;;;;;12.40;4.07;;;15.10;99.90;;;;;;5072982;28;20067;-76
2023/01/01 00:54:16;;;;;;;17.67;7.00;;;15.00;99.90;;;;;;5071796;28;20025;-75
2023/01/01 00:56:41;;;;;;;13.93;3.92;;;15.00;99.90;;;;;;5073381;28;20025;-75
2023/01/01 00:59:07;;;;;;;15.20;3.90;;;15.00;99.90;;;;;;5072760;28;20078;-75
2023/01/01 01:01:33;;;;;;;14.57;3.97;;;15.00;99.90;;;;;;5072887;28;20063;-75
2023/01/01 01:03:59;;;;;;;21.08;4.30;;;15.10;99.90;;;;;;5071707;28;20020;-75
2023/01/01 01:06:24;;;;;;;16.55;3.53;;;15.10;99.90;;;;;;5073086;28;20029;-76
2023/01/01 01:08:50;;;;;;;13.80;3.60;;;15.10;99.90;;;;;;5071593;28;20506;-75
2023/01/01 01:11:21;;;;;;;13.25;2.28;;;15.10;99.90;;;;;;5071618;28;20036;-76
2023/01/01 01:13:50;;;;;;;9.93;1.40;;;15.10;99.90;;;;;;5071554;28;20067;-75
2023/01/01 01:16:17;;;;;;;21.15;3.35;;;15.10;99.90;;;;;;5072786;28;20028;-75
2023/01/01 01:18:44;;;;;;;8.25;1.80;;;15.10;99.90;;;;;;5071243;28;20028;-75
2023/01/01 01:21:10;;;;;;;7.95;1.77;;;15.20;99.90;;;;;;5071511;28;20120;-75
2023/01/01 01:23:36;;;;;;;3.80;1.17;;;15.00;99.90;;;;;;5072794;28;20082;-76
2023/01/01 01:26:19;;;;;;;11.85;1.73;;;15.10;99.90;;;;;;5071424;28;20024;-76
2023/01/01 01:28:45;;;;;;;8.02;1.25;;;15.10;99.90;;;;;;5072727;28;20040;-75
2023/01/01 01:31:11;;;;;;;8.10;1.45;;;15.20;99.90;;;;;;5076393;28;20387;-76
2023/01/01 01:33:37;;;;;;;6.97;1.10;;;15.10;99.90;;;;;;5075154;28;20459;-76
2023/01/01 01:36:04;;;;;;;10.13;1.73;;;15.00;99.90;;;;;;5076401;28;20029;-76
2023/01/01 01:38:29;;;;;;;12.02;1.75;;;15.00;99.90;;;;;;5076405;28;20029;-75
2023/01/01 01:40:55;;;;;;;4.43;1.15;;;15.00;99.90;;;;;;5076215;28;20021;-75
2023/01/01 01:43:31;;;;;;;8.85;1.67;;;15.10;99.90;;;;;;5076179;28;20057;-75
2023/01/01 01:46:09;;;;;;;4.47;0.85;;;14.90;99.90;;;;;;5076704;28;20024;-76
2023/01/01 01:48:44;;;;;;;7.13;0.70;;;14.80;99.90;;;;;;5076755;28;20021;-75
2023/01/01 01:51:12;;;;;;;3.15;0.60;;;14.80;99.90;;;;;;5076049;28;20029;-76
2023/01/01 01:53:42;;;;;;;4.53;0.55;;;14.70;99.90;;;;;;5076045;28;20021;-75
2023/01/01 01:56:13;;;;;;;7.90;1.45;;;16.10;99.90;;;;;;5076064;28;20028;-75
2023/01/01 01:58:39;;;;;;;5.32;1.08;;;14.80;99.90;;;;;;5076195;28;20028;-75
2023/01/01 02:01:04;;;;;;;7.30;0.25;;;14.70;99.90;;;;;;5075963;28;20021;-75
2023/01/01 02:03:56;;;;;;;3.10;0.47;;;14.90;99.90;;;;;;5076390;28;20024;-75
2023/01/01 02:06:22;;;;;;;9.57;0.73;;;14.60;99.90;;;;;;5074593;28;20021;-75
2023/01/01 02:08:49;;;;;;;3.97;0.47;;;14.60;99.90;;;;;;5075697;28;20025;-75
2023/01/01 02:11:15;;;;;;;3.00;0.52;;;14.60;99.90;;;;;;5074416;28;20086;-75
2023/01/01 02:13:40;;;;;;;5.82;1.15;;;14.90;99.90;;;;;;5074514;28;20020;-75
2023/01/01 02:16:26;;;;;;;4.90;0.75;;;14.60;99.90;;;;;;5074341;28;20033;-75
2023/01/01 02:18:51;;;;;;;5.18;0.90;;;14.50;99.90;;;;;;5075482;28;20048;-75
2023/01/01 02:21:26;;;;;;;8.90;0.60;;;14.50;99.90;;;;;;5074271;28;20518;-74
2023/01/01 02:24:17;;;;;;;5.03;0.85;;;14.60;99.90;;;;;;5074188;28;20499;-74
2023/01/01 02:26:50;;;;;;;4.10;0.20;;;14.60;99.90;;;;;;5075500;28;20458;-75
2023/01/01 02:29:32;;;;;;;8.43;1.42;;;14.60;99.90;;;;;;5074175;28;20450;-75
2023/01/01 02:32:13;;;;;;;2.40;0.13;;;14.60;99.90;;;;;;5074185;28;20020;-76
2023/01/01 02:34:48;;;;;;;6.80;1.17;;;14.60;99.90;;;;;;5075911;28;20059;-75
2023/01/01 02:37:16;;;;;;;2.42;0.43;;;14.70;99.90;;;;;;5074070;28;20021;-75
2023/01/01 02:39:47;;;;;;;5.38;0.20;;;14.60;99.90;;;;;;5074651;28;20082;-75
2023/01/01 02:42:22;;;;;;;5.10;0.77;;;14.60;99.90;;;;;;5075327;28;20035;-75
2023/01/01 02:44:51;;;;;;;5.32;0.47;;;14.60;99.90;;;;;;5075186;28;20085;-75
2023/01/01 02:47:19;;;;;;;2.70;0.17;;;14.60;99.90;;;;;;5074607;28;20048;-75
2023/01/01 02:49:55;;;;;;;3.53;0.35;;;14.60;99.90;;;;;;5075055;28;20039;-75
2023/01/01 02:52:50;;;;;;;5.00;0.35;;;14.60;99.90;;;;;;5073735;28;20032;-75
2023/01/01 02:55:31;;;;;;;3.65;0.40;;;14.50;99.90;;;;;;5074959;28;20024;-75
2023/01/01 03:01:32;;;;;;;9.75;0.68;;;14.60;99.90;;;;;;5075131;28;20074;-75
2023/01/01 03:04:16;;;;;;;3.70;0.20;;;14.60;99.90;;;;;;5073748;28;20472;-75
2023/01/01 03:07:01;;;;;;;2.85;0.45;;;14.60;99.90;;;;;;5074627;28;20107;-75
2023/01/01 03:09:32;;;;;;;4.82;0.30;;;14.50;99.90;;;;;;5073254;28;20070;-75
2023/01/01 03:12:19;;;;;;;2.05;0.10;;;14.50;99.90;;;;;;5074624;28;20483;-75
2023/01/01 03:15:02;;;;;;;4.13;0.57;;;14.60;99.90;;;;;;5075095;28;20367;-75
2023/01/01 03:17:55;;;;;;;3.63;0.38;;;15.50;99.90;;;;;;5073263;28;20059;-75
2023/01/01 03:20:25;;;;;;;7.60;0.55;;;14.60;99.90;;;;;;5074435;28;20502;-75
2023/01/01 03:22:54;;;;;;;6.85;0.20;;;14.60;99.90;;;;;;5074397;28;20100;-75
2023/01/01 03:25:24;;;;;;;4.30;0.50;;;14.60;99.90;;;;;;5074257;28;20491;-75
2023/01/01 03:28:11;;;;;;;5.10;0.90;;;14.50;99.90;;;;;;5074500;28;20016;-75
2023/01/01 03:30:38;;;;;;;9.43;0.73;;;14.60;99.90;;;;;;5072930;28;20048;-74
2023/01/01 03:33:11;;;;;;;6.20;0.77;;;14.50;99.90;;;;;;5072889;28;20063;-75
2023/01/01 03:35:52;;;;;;;6.75;0.70;;;14.50;99.90;;;;;;5072906;28;20480;-75
2023/01/01 03:38:49;;;;;;;7.93;0.73;;;14.50;99.90;;;;;;5074327;28;20479;-75
2023/01/01 03:41:22;;;;;;;4.93;0.40;;;14.60;99.90;;;;;;5072823;28;20044;-75
2023/01/01 03:44:07;;;;;;;3.45;0.88;;;14.80;99.90;;;;;;5072667;28;20024;-75
2023/01/01 03:46:35;;;;;;;12.82;1.02;;;14.50;99.90;;;;;;5072791;28;20021;-75
2023/01/01 03:49:05;;;;;;;4.45;0.35;;;14.40;99.90;;;;;;5072634;28;20021;-75
2023/01/01 03:51:51;;;;;;;4.90;0.40;;;14.30;99.90;;;;;;5072004;28;20031;-75
2023/01/01 03:54:44;;;;;;;10.93;0.57;;;13.80;99.90;;;;;;5059629;28;20410;-75
2023/01/01 03:57:32;;;;;;;3.88;0.32;;;13.60;99.90;;;;;;5072487;28;20031;-76
2023/01/01 04:00:02;;;;;;;6.00;0.57;;;13.60;99.90;;;;;;5072872;28;20029;-77
2023/01/01 04:02:34;;;;;;;10.07;0.63;;;13.70;99.90;;;;;;5072425;28;20052;-77
2023/01/01 04:05:02;;;;;;;5.03;0.43;;;13.70;99.90;;;;;;5074291;28;20021;-77
2023/01/01 04:07:29;;;;;;;1.33;0.22;;;13.70;99.90;;;;;;5073542;28;20016;-75
2023/01/01 04:09:58;;;;;;;2.67;0.20;;;13.70;99.90;;;;;;5073439;28;20056;-77
2023/01/01 04:12:24;;;;;;;9.35;0.60;;;13.70;99.90;;;;;;5073526;28;20395;-77
2023/01/01 04:14:50;;;;;;;3.40;0.40;;;13.60;99.90;;;;;;5073457;28;20021;-75
2023/01/01 04:17:15;;;;;;;10.30;0.55;;;13.60;99.90;;;;;;5074008;28;20025;-77
2023/01/01 04:19:41;;;;;;;2.30;0.30;;;13.60;99.90;;;;;;5073342;28;20095;-77
2023/01/01 04:22:06;;;;;;;6.40;0.45;;;13.50;99.90;;;;;;5072153;28;20364;-75
2023/01/01 04:24:32;;;;;;;5.25;0.32;;;13.50;99.90;;;;;;5074743;28;20111;-78
2023/01/01 04:26:58;;;;;;;4.82;0.28;;;13.80;99.90;;;;;;5073908;28;20020;-78
2023/01/01 04:29:23;;;;;;;3.45;0.80;;;13.40;99.90;;;;;;5072791;28;20032;-79
2023/01/01 04:31:49;;;;;;;9.23;0.70;;;13.30;99.90;;;;;;5073130;28;20035;-79
2023/01/01 04:34:15;;;;;;;2.63;0.00;;;13.30;99.90;;;;;;5074678;28;20024;-80
2023/01/01 04:36:41;;;;;;;2.50;0.10;;;14.60;99.90;;;;;;5074261;28;20063;-80
2023/01/01 04:39:07;;;;;;;4.38;0.40;;;13.20;99.90;;;;;;5072962;28;20070;-79
2023/01/01 04:41:33;;;;;;;3.63;0.65;;;13.90;99.90;;;;;;5074306;28;20021;-79
2023/01/01 04:43:59;;;;;;;2.28;0.43;;;13.40;99.90;;;;;;5072967;28;20483;-76
2023/01/01 04:46:25;;;;;;;4.30;0.30;;;13.00;99.90;;;;;;5073915;28;20075;-79
2023/01/01 04:48:51;;;;;;;7.05;0.68;;;13.00;99.90;;;;;;5073986;28;20021;-78
2023/01/01 04:51:18;;;;;;;9.18;0.82;;;13.00;99.90;;;;;;5073036;28;20081;-79
2023/01/01 04:53:44;;;;;;;4.13;0.22;;;12.80;99.90;;;;;;5074243;28;20051;-78
2023/01/01 04:56:13;;;;;;;4.88;0.20;;;12.80;99.90;;;;;;5073204;28;20021;-79
2023/01/01 04:58:40;;;;;;;4.00;0.08;;;12.80;99.90;;;;;;5074001;28;20029;-78
2023/01/01 05:01:07;;;;;;;4.85;0.08;;;13.00;99.90;;;;;;5072931;28;20027;-79
2023/01/01 05:03:33;;;;;;;11.80;0.98;;;12.80;99.90;;;;;;5073599;28;20021;-78
2023/01/01 05:06:06;;;;;;;1.80;0.00;;;12.80;99.90;;;;;;5077423;28;20052;-78
2023/01/01 05:08:34;;;;;;;3.08;0.00;;;12.80;99.90;;;;;;5075935;28;20491;-78
2023/01/01 05:11:02;;;;;;;4.20;0.82;;;12.80;99.90;;;;;;5075632;28;20047;-78
2023/01/01 05:13:28;;;;;;;4.65;0.57;;;12.70;99.90;;;;;;5075637;28;20043;-78
2023/01/01 05:15:53;;;;;;;6.28;0.73;;;12.70;99.90;;;;;;5076815;28;20028;-79
2023/01/01 05:18:19;;;;;;;5.13;0.17;;;12.70;99.90;;;;;;5075523;28;20038;-78
2023/01/01 05:20:45;;;;;;;3.22;0.47;;;12.70;99.90;;;;;;5076613;28;20104;-78
2023/01/01 05:23:11;;;;;;;7.57;0.20;;;;;;;;;;5076083;28;20032;-78
2023/01/01 05:25:37;;;;;;;5.88;0.28;;;12.70;99.90;;;;;;5075488;28;20033;-78
2023/01/01 05:28:02;;;;;;;2.60;0.20;;;12.70;99.90;;;;;;5075334;28;20021;-79
2023/01/01 05:30:28;;;;;;;9.27;1.08;;;12.70;99.90;;;;;;5075166;28;20032;-78
2023/01/01 05:32:53;;;;;;;11.23;0.52;;;12.70;99.90;;;;;;5075188;28;20028;-78
2023/01/01 05:35:19;;;;;;;3.22;0.43;;;12.70;99.90;;;;;;5075351;28;20479;-78
2023/01/01 05:37:44;;;;;;;4.68;0.52;;;12.70;99.90;;;;;;5075201;28;20031;-78
2023/01/01 05:40:10;;;;;;;5.78;0.35;;;12.90;99.90;;;;;;5076377;28;20502;-78
2023/01/01 05:42:36;;;;;;;4.05;0.63;;;12.70;99.90;;;;;;5076911;28;20410;-78
2023/01/01 05:45:02;;;;;;;2.42;0.10;;;13.60;99.90;;;;;;5075118;28;20017;-78
2023/01/01 05:47:28;;;;;;;1.45;0.00;;;12.70;99.90;;;;;;5075003;28;20024;-78
2023/01/01 05:49:54;;;;;;;3.33;0.10;;;12.70;99.90;;;;;;5074921;28;20029;-79
2023/01/01 05:52:19;;;;;;;2.25;0.05;;;12.80;99.90;;;;;;5076431;28;20031;-79
2023/01/01 05:54:45;;;;;;;5.13;0.35;;;12.70;99.90;;;;;;5076241;28;20483;-78
2023/01/01 05:57:10;;;;;;;2.53;0.00;;;12.70;99.90;;;;;;5076406;28;20479;-78
2023/01/01 05:59:36;;;;;;;2.75;1.13;;;12.70;99.90;;;;;;5075925;28;20028;-78
2023/01/01 06:02:01;;;;;;;1.55;0.00;;;12.70;99.90;;;;;;5074829;28;20082;-78
2023/01/01 06:04:27;;;;;;;3.30;0.80;;;12.70;99.90;;;;;;5076060;28;20468;-78
2023/01/01 06:06:53;;;;;;;3.17;0.03;;;12.70;99.90;;;;;;5076043;28;20024;-78
2023/01/01 06:09:18;;;;;;;3.60;0.08;;;12.70;99.90;;;;;;5074614;28;20024;-79
2023/01/01 06:11:44;;;;;;;4.78;0.45;;;12.60;99.90;;;;;;5076096;28;20060;-78
2023/01/01 06:14:09;;;;;;;1.08;0.30;;;12.60;99.90;;;;;;5074671;28;20024;-78
2023/01/01 06:16:35;;;;;;;4.55;0.85;;;12.60;99.90;;;;;;5074963;28;20029;-78
2023/01/01 06:19:00;;;;;;;1.25;0.00;;;12.60;99.90;;;;;;5074409;28;20035;-78
2023/01/01 06:21:27;;;;;;;1.75;0.00;;;12.60;99.90;;;;;;5074454;28;20486;-79
2023/01/01 06:23:55;;;;;;;4.55;0.82;;;12.50;99.90;;;;;;5081524;23;20037;-80
2023/01/01 06:26:23;;;;;;;4.35;0.80;;;12.50;99.90;;;;;;5027287;28;20032;-81
2023/01/01 06:28:50;;;;;;;4.45;0.00;;;12.50;99.90;;;;;;5026170;28;20056;-80
2023/01/01 06:31:19;;;;;;;4.35;0.00;;;12.50;99.90;;;;;;5045241;28;20052;-80
2023/01/01 06:33:45;;;;;;;1.98;0.00;;;12.90;99.90;;;;;;5043681;28;20040;-81
2023/01/01 06:36:13;;;;;;;2.00;0.00;;;12.50;99.90;;;;;;5043724;28;20392;-81
2023/01/01 06:38:42;;;;;;;5.82;0.60;;;12.40;99.90;;;;;;5042403;28;20040;-80
2023/01/01 06:41:13;;;;;;;2.35;0.25;;;12.40;99.90;;;;;;5044132;28;20455;-81
2023/01/01 06:43:39;;;;;;;3.90;0.10;;;12.40;99.90;;;;;;5044135;28;20013;-81
2023/01/01 06:46:19;;;;;;;6.93;0.00;;;12.50;99.90;;;;;;5043480;28;20548;-80
2023/01/01 06:48:47;;;;;;;3.63;0.35;;;12.40;99.90;;;;;;5043689;28;20064;-81
2023/01/01 06:51:14;;;;;;;2.80;0.00;;;12.40;99.90;;;;;;5043877;28;20025;-81
2023/01/01 06:53:40;;;;;;;3.70;0.00;;;12.60;99.90;;;;;;5045017;28;20025;-80
2023/01/01 06:56:06;;;;;;;6.75;0.10;;;12.40;99.90;;;;;;5043351;28;20025;-80
2023/01/01 06:58:32;;;;;;;2.83;0.00;;;12.30;99.90;;;;;;5042800;28;20024;-81
2023/01/01 07:01:04;;;;;;;2.70;0.22;;;13.80;99.90;;;;;;5044777;28;20041;-80
2023/01/01 07:03:30;;;;;;;3.80;0.10;;;12.30;99.90;;;;;;5042948;28;20486;-80
2023/01/01 07:05:55;;;;;;;1.77;0.22;;;12.30;99.90;;;;;;5043246;28;20017;-80
2023/01/01 07:08:21;;;;;;;7.60;1.33;;;12.70;99.90;;;;;;5043110;28;20031;-80
2023/01/01 07:10:46;;;;;;;3.22;0.20;;;12.20;99.90;;;;;;5043288;28;20089;-81
2023/01/01 07:13:12;;;;;;;5.88;0.08;;;12.20;99.90;;;;;;5042677;28;20021;-80
2023/01/01 07:15:37;;;;;;;8.32;0.10;;;12.60;99.90;;;;;;5044444;28;20014;-80
2023/01/01 07:18:03;;;;;;;4.38;0.15;;;12.20;99.90;;;;;;5041798;28;20018;-80
2023/01/01 07:20:28;;;;;;;3.70;0.10;;;12.20;99.90;;;;;;5043971;28;20048;-80
2023/01/01 07:22:54;;;;;;;2.47;0.00;;;13.00;99.90;;;;;;5041712;28;20443;-80
2023/01/01 07:25:20;;;;;;;1.38;0.15;;;12.80;99.90;;;;;;5041955;28;20033;-81
2023/01/01 07:27:45;;;;;;;1.83;0.05;;;12.60;99.90;;;;;;5042935;28;20025;-81
2023/01/01 07:30:11;;;;;;;2.05;0.30;;;12.10;99.90;;;;;;5042433;28;20029;-81
2023/01/01 07:32:36;;;;;;;5.45;0.65;;;12.10;99.90;;;;;;5042721;28;20022;-80
2023/01/01 07:35:02;;;;;;;1.25;0.17;;;12.10;99.90;;;;;;5044423;28;20121;-80
2023/01/01 07:37:30;;;;;;;3.30;0.00;;;12.10;99.90;;;;;;5044932;28;20025;-81
2023/01/01 07:39:55;;;;;;;6.60;0.93;;;12.10;99.90;;;;;;5044581;28;20040;-81
2023/01/01 07:42:21;;;;;;;4.63;0.50;;;12.10;99.90;;;;;;5044699;28;20017;-81
2023/01/01 07:44:47;;;;;;;3.75;0.00;;;12.00;99.90;;;;;;5042890;28;20458;-81
2023/01/01 07:47:24;;;;;;;5.82;0.68;;;11.90;99.90;;;;;;5045409;28;20017;-81
2023/01/01 07:49:51;;;;;;;1.38;0.32;;;11.90;99.90;;;;;;5044651;28;20025;-80
2023/01/01 07:52:17;;;;;;;6.68;0.00;;;12.00;99.90;;;;;;5043332;28;20032;-81
2023/01/01 07:54:42;;;;;;;4.88;0.10;;;12.70;99.90;;;;;;5045283;28;20033;-81
2023/01/01 07:57:08;;;;;;;5.55;0.25;;;11.80;99.90;;;;;;5043057;28;20113;-80
2023/01/01 07:59:33;;;;;;;2.67;0.32;;;12.70;99.90;;;;;;5043978;28;20076;-81
2023/01/01 08:02:02;;;;;;;1.92;0.43;;;11.70;99.90;;;;;;5043511;28;20032;-81
2023/01/01 08:04:28;;;;;;;2.33;0.10;;;13.60;99.90;;;;;;5044233;28;20022;-81
2023/01/01 08:06:53;;;;;;;3.28;0.00;;;11.60;99.90;;;;;;5039498;28;20032;-79
2023/01/01 08:09:19;;;;;;;3.22;0.13;;;11.60;99.90;;;;;;5042914;28;20029;-80
2023/01/01 08:11:45;;;;;;;3.70;0.47;;;11.80;99.90;;;;;;5042192;28;20508;-80
2023/01/01 08:14:11;;;;;;;5.70;0.00;;;11.60;99.90;;;;;;5037081;28;20025;-77
2023/01/01 08:16:36;;;;;;;3.05;0.00;;;11.50;99.90;;;;;;5032349;28;20025;-77
2023/01/01 08:19:02;;;;;;;3.53;0.30;;;11.50;99.90;;;;;;5033497;28;20036;-78
2023/01/01 08:21:28;;;;;;;1.50;0.00;;;11.60;99.90;;;;;;5032407;28;20097;-77
2023/01/01 08:23:53;;;;;;;2.30;0.20;;;11.50;99.90;;;;;;5032244;28;20075;-77
2023/01/01 08:26:28;;;;;;;4.65;0.57;;;11.50;99.90;;;;;;5038095;28;20036;-83
2023/01/01 08:28:53;;;;;;;6.40;0.03;;;11.50;99.90;;;;;;5040989;28;20039;-84
2023/01/01 08:31:19;;;;;;;2.85;0.00;;;11.50;99.90;;;;;;5043258;28;20539;-83
2023/01/01 08:33:44;;;;;;;2.35;0.17;;;11.50;99.90;;;;;;5042477;28;20025;-83
2023/01/01 08:36:12;;;;;;;2.90;0.22;;;11.50;99.90;;;;;;5041343;28;20082;-83
2023/01/01 08:38:38;;;;;;;5.90;0.10;;;;;;;;;;5040009;28;20025;-83
2023/01/01 08:41:04;;;;;;;7.05;0.00;;;11.50;99.90;;;;;;5041144;28;20352;-84
2023/01/01 08:43:29;;;;;;;5.20;0.00;;;12.10;99.90;;;;;;5043222;28;20053;-83
2023/01/01 08:45:55;;;;;;;2.72;0.15;;;11.40;99.90;;;;;;5042966;28;20025;-83
2023/01/01 08:48:20;;;;;;;11.00;0.10;;;11.90;99.90;;;;;;5043415;28;20033;-84
2023/01/01 08:51:05;;;;;;;5.25;0.75;;;11.40;99.90;;;;;;5041940;28;20079;-83
2023/01/01 08:53:31;;;;;;;9.98;0.30;;;11.50;99.90;;;;;;5043366;28;20036;-83
2023/01/01 08:55:59;;;;;;;2.90;0.25;;;12.00;99.90;;;;;;5042506;28;20114;-83
2023/01/01 08:58:25;;;;;;;4.07;0.32;;;11.60;99.90;;;;;;5040554;28;20018;-83
2023/01/01 09:00:52;;;;;;;4.82;0.00;;;11.50;99.90;;;;;;5041546;28;20022;-84
2023/01/01 09:03:17;;;;;;;5.97;0.43;;;11.60;99.90;;;;;;5040438;28;20014;-83
2023/01/01 09:05:44;;;;;;;2.03;0.00;;;13.00;99.90;;;;;;5040535;28;20507;-84
2023/01/01 09:08:11;;;;;;;3.15;0.00;;;11.60;99.90;;;;;;5039857;28;20071;-84
2023/01/01 09:10:37;;;;;;;5.20;0.32;;;11.60;99.90;;;;;;5038121;28;20033;-84
2023/01/01 09:13:02;;;;;;;5.47;0.55;;;11.70;99.90;;;;;;5038913;28;20536;-83
2023/01/01 09:15:28;;;;;;;7.05;0.15;;;13.00;99.90;;;;;;5040629;28;20032;-84
2023/01/01 09:17:53;;;;;;;7.97;0.22;;;11.70;99.90;;;;;;5039255;28;20037;-84
2023/01/01 09:20:19;;;;;;;3.70;0.40;;;11.70;99.90;;;;;;5039002;28;20029;-85
2023/01/01 09:22:44;;;;;;;3.55;0.00;;;11.70;99.90;;;;;;5037887;28;20025;-84
2023/01/01 09:25:10;;;;;;;2.47;0.00;;;11.80;99.90;;;;;;5037778;28;20476;-84
2023/01/01 09:27:36;;;;;;;6.22;0.55;;;11.80;99.90;;;;;;5039025;28;20025;-84
2023/01/01 09:30:01;;;;;;;5.05;0.10;;;13.70;99.90;;;;;;5037625;28;20397;-84
2023/01/01 09:32:27;;;;;;;3.38;0.10;;;11.80;99.90;;;;;;5036803;28;20026;-84
2023/01/01 09:34:52;;;;;;;6.57;0.25;;;11.90;99.90;;;;;;5036999;28;20030;-83
2023/01/01 09:37:18;;;;;;;3.22;0.25;;;12.60;99.90;;;;;;5036522;28;20028;-83
2023/01/01 09:39:44;;;;;;;5.43;0.95;;;12.00;99.90;;;;;;5035942;28;20033;-83
2023/01/01 09:42:25;;;;;;;4.57;0.20;;;12.10;99.90;;;;;;5036366;28;20029;-83
2023/01/01 09:45:20;;;;;;;3.90;0.05;;;12.20;99.90;;;;;;5036867;28;20021;-83
2023/01/01 09:47:50;;;;;;;4.07;0.60;;;12.20;99.90;;;;;;5036252;28;20017;-84
2023/01/01 09:50:28;;;;;;;4.25;0.30;;;12.30;99.90;;;;;;5037189;28;20079;-84
2023/01/01 09:53:11;;;;;;;6.68;0.25;;;12.40;99.90;;;;;;5040609;28;20037;-82
2023/01/01 09:55:55;;;;;;;8.63;0.55;;;12.40;99.90;;;;;;5041416;28;20029;-83
2023/01/01 09:58:27;;;;;;;7.22;0.28;;;12.40;99.90;;;;;;5041639;28;20025;-83
2023/01/01 10:00:58;;;;;;;2.47;0.30;;;12.50;99.90;;;;;;5043106;28;20022;-83
2023/01/01 10:03:34;;;;;;;7.60;0.17;;;12.50;99.90;;;;;;5043199;28;20017;-83
2023/01/01 10:06:27;;;;;;;9.48;0.45;;;12.50;99.90;;;;;;5043506;28;20018;-82
2023/01/01 10:09:26;;;;;;;8.27;0.25;;;12.60;99.90;;;;;;5043438;28;20029;-83
2023/01/01 10:12:06;;;;;;;5.10;0.00;;;12.60;99.90;;;;;;5044398;28;20029;-82
2023/01/01 10:14:35;;;;;;;1.30;0.00;;;12.60;99.90;;;;;;5042130;28;20032;-82
2023/01/01 10:17:11;;;;;;;7.25;0.17;;;12.60;99.90;;;;;;5042964;28;20029;-83
2023/01/01 10:19:56;;;;;;;2.10;0.35;;;12.60;99.90;;;;;;5042480;28;20029;-83
2023/01/01 10:22:27;;;;;;;4.93;0.70;;;12.60;99.90;;;;;;5042734;28;20396;-82
2023/01/01 10:25:05;;;;;;;7.72;1.20;;;12.60;99.90;;;;;;5042733;28;20045;-83
2023/01/01 10:27:36;;;;;;;6.50;0.43;;;12.50;99.90;;;;;;5043006;28;20017;-83
2023/01/01 10:30:15;;;;;;;6.72;0.15;;;12.50;99.90;;;;;;5043929;28;20100;-82
2023/01/01 10:32:42;;;;;;;8.07;0.40;;;12.50;99.90;;;;;;5043874;28;20068;-83
2023/01/01 10:35:29;;;;;;;2.95;0.00;;;12.60;99.90;;;;;;5042051;28;20059;-83
2023/01/01 10:37:58;;;;;;;7.13;0.05;;;12.50;99.90;;;;;;5041973;28;20017;-84
2023/01/01 10:40:27;;;;;;;;;;;12.60;99.90;;;;;;5042055;28;20423;-83
2023/01/01 10:42:55;;;;;;;3.47;0.47;;;12.60;99.90;;;;;;5042186;28;19912;-83
2023/01/01 10:45:33;;;;;;;4.40;0.00;;;12.70;99.90;;;;;;5041419;28;20092;-83
2023/01/01 10:48:08;;;;;;;5.78;0.30;;;14.90;99.90;;;;;;5040916;28;20025;-83
2023/01/01 10:50:43;;;;;;;1.88;0.20;;;12.70;99.90;;;;;;5041902;28;20472;-83
2023/01/01 10:53:40;;;;;;;5.90;0.90;;;12.80;99.90;;;;;;5042905;28;20056;-84
2023/01/01 10:56:10;;;;;;;7.55;0.40;;;12.90;99.90;;;;;;5038079;28;20036;-84
2023/01/01 10:58:43;;;;;;;6.30;0.60;;;12.90;99.90;;;;;;5042675;28;20075;-83
2023/01/01 11:01:31;;;;;;;8.73;1.10;;;12.90;99.90;;;;;;5040676;28;20022;-84
2023/01/01 11:04:06;;;;;;;8.73;0.10;;;12.90;99.90;;;;;;5038755;28;20061;-84
2023/01/01 11:06:32;;;;;;;5.35;0.55;;;12.90;99.90;;;;;;5041365;28;20097;-83
2023/01/01 11:09:02;;;;;;;4.45;0.00;;;12.90;99.90;;;;;;5041685;28;20123;-84
2023/01/01 11:11:27;;;;;;;5.78;0.30;;;12.90;99.90;;;;;;5039464;28;20013;-84
2023/01/01 11:13:58;;;;;;;7.82;0.47;;;12.90;99.90;;;;;;5041591;28;20026;-84
2023/01/01 11:16:28;;;;;;;4.18;0.00;;;12.90;99.90;;;;;;5041931;28;20123;-84
2023/01/01 11:19:01;;;;;;;6.25;0.70;;;13.00;99.90;;;;;;5039704;28;20485;-84
2023/01/01 11:21:27;;;;;;;5.70;0.57;;;13.00;99.90;;;;;;5041514;28;20032;-83
2023/01/01 11:24:19;;;;;;;7.70;0.20;;;12.90;99.90;;;;;;5041619;28;20021;-83
2023/01/01 11:26:45;;;;;;;4.72;0.00;;;12.90;99.90;;;;;;5039926;28;20075;-84
2023/01/01 11:29:27;;;;;;;6.13;0.28;;;12.90;99.90;;;;;;5040495;28;20029;-83
2023/01/01 11:31:54;;;;;;;1.95;0.10;;;12.90;99.90;;;;;;5042093;28;20051;-83
2023/01/01 11:34:31;;;;;;;9.52;0.22;;;12.80;99.90;;;;;;5041698;28;20025;-83
2023/01/01 11:37:22;;;;;;;6.20;0.55;;;12.70;99.90;;;;;;5041508;28;20040;-83
2023/01/01 11:39:51;;;;;;;4.88;0.40;;;12.70;99.90;;;;;;5039851;28;20131;-83
2023/01/01 11:42:23;;;;;;;6.05;0.20;;;12.80;99.90;;;;;;5040630;28;20390;-83
2023/01/01 11:44:53;;;;;;;3.72;0.30;;;12.70;99.90;;;;;;5039903;28;20068;-83
2023/01/01 11:47:24;;;;;;;3.08;0.40;;;12.70;99.90;;;;;;5040111;28;20031;-83
2023/01/01 11:50:10;;;;;;;6.70;0.08;;;13.30;99.90;;;;;;5040685;28;20025;-83
2023/01/01 11:52:38;;;;;;;3.97;0.20;;;12.70;99.90;;;;;;5041314;28;20072;-83
2023/01/01 11:55:21;;;;;;;6.72;0.45;;;12.70;99.90;;;;;;5039776;28;20018;-82
2023/01/01 11:58:10;;;;;;;2.83;0.10;;;12.70;99.90;;;;;;5039686;28;20029;-82
2023/01/01 12:00:36;;;;;;;4.50;1.00;;;12.60;99.90;;;;;;5038217;28;20021;-84
2023/01/01 12:03:18;;;;;;;5.47;0.63;;;12.70;99.90;;;;;;5039263;28;20053;-83
2023/01/01 12:06:06;;;;;;;8.02;0.70;;;12.60;99.90;;;;;;5039314;28;20502;-83
2023/01/01 12:08:38;;;;;;;7.35;0.13;;;12.70;99.90;;;;;;5040206;28;20039;-83
2023/01/01 12:11:14;;;;;;;10.27;0.95;;;12.70;99.90;;;;;;5040423;28;20021;-83
2023/01/01 12:14:29;;;;;;;3.40;0.20;;;12.80;99.90;;;;;;5040609;28;20029;-84
2023/01/01 12:17:10;;;;;;;4.82;0.32;;;12.80;99.90;;;;;;4994498;28;20042;-83
2023/01/01 12:20:23;;;;;;;9.23;0.50;;;12.90;99.90;;;;;;5039109;28;20025;-84
2023/01/01 12:22:48;;;;;;;8.85;1.10;;;12.80;99.90;;;;;;4963880;28;20030;-84
2023/01/01 12:25:18;;;;;;;10.18;0.88;;;12.90;99.90;;;;;;5022232;28;20479;-84
2023/01/01 12:28:02;;;;;;;6.82;0.60;;;12.90;99.90;;;;;;5039535;28;20484;-83
2023/01/01 12:30:52;;;;;;;9.60;0.10;;;12.90;99.90;;;;;;5040685;28;20030;-84
2023/01/01 12:33:26;;;;;;;10.30;0.40;;;12.90;99.90;;;;;;5039540;28;20018;-83
2023/01/01 12:36:21;;;;;;;7.45;0.45;;;12.90;99.90;;;;;;5039496;28;20028;-84
2023/01/01 12:39:05;;;;;;;3.42;1.17;;;12.90;99.90;;;;;;5037122;28;20288;-83
2023/01/01 12:41:49;;;;;;;6.60;0.70;;;13.00;99.90;;;;;;5039552;28;20060;-84
2023/01/01 12:44:40;;;;;;;9.90;0.30;;;12.90;99.90;;;;;;5038951;28;20068;-83
2023/01/01 12:47:13;;;;;;;5.13;0.00;;;13.00;99.90;;;;;;5038044;28;20033;-84
2023/01/01 12:50:06;;;;;;;8.55;0.43;;;13.00;99.90;;;;;;5040134;28;20037;-84
2023/01/01 12:52:37;;;;;;;4.40;0.68;;;13.00;99.90;;;;;;5039569;28;20052;-83
2023/01/01 12:55:37;;;;;;;7.63;0.75;;;12.90;99.90;;;;;;5038814;28;20492;-83
2023/01/01 12:58:33;;;;;;;8.10;0.65;;;12.90;99.90;;;;;;5041500;28;20025;-84
2023/01/01 13:01:13;;;;;;;11.65;1.35;;;12.90;99.90;;;;;;5039382;28;20032;-84
2023/01/01 13:04:02;;;;;;;3.83;0.38;;;12.90;99.90;;;;;;5038791;28;20431;-83
2023/01/01 13:06:38;;;;;;;7.82;0.95;;;12.90;99.90;;;;;;5037912;28;20022;-84
2023/01/01 13:09:09;;;;;;;4.45;0.17;;;12.90;99.90;;;;;;5039581;28;20028;-81